createdAt,value
2019-05-18T00:02:22.170Z,96.03
2019-05-18T00:04:48.158Z,95.97
2019-05-18T00:07:14.135Z,96.31
2019-05-18T00:09:40.155Z,96.11
2019-05-18T00:12:06.184Z,95.80
2019-05-18T00:14:32.164Z,95.54
2019-05-18T00:16:58.174Z,95.48
2019-05-18T00:19:24.224Z,95.47
2019-05-18T00:21:50.305Z,95.30
2019-05-18T00:24:16.371Z,95.67
2019-05-18T00:26:42.406Z,95.67
2019-05-18T00:29:08.386Z,95.68
2019-05-18T00:31:34.455Z,95.88
2019-05-18T00:34:00.440Z,95.84
2019-05-18T00:36:27.332Z,96.51
2019-05-18T00:38:53.346Z,96.46
2019-05-18T00:41:19.336Z,96.28
2019-05-18T00:43:45.453Z,96.31
2019-05-18T00:46:11.477Z,96.32
2019-05-18T00:48:37.506Z,96.23
2019-05-18T00:51:03.848Z,96.15
2019-05-18T00:53:29.886Z,96.21
2019-05-18T00:55:55.933Z,95.86
2019-05-18T00:58:21.917Z,95.86
2019-05-18T01:00:47.981Z,95.78
2019-05-18T01:03:14.073Z,95.57
2019-05-18T01:05:40.120Z,95.95
2019-05-18T01:08:06.104Z,95.50
2019-05-18T01:10:32.080Z,95.42
2019-05-18T01:12:58.101Z,95.25
2019-05-18T01:15:24.089Z,95.20
2019-05-18T01:17:57.208Z,95.26
2019-05-18T01:20:18.285Z,95.14
2019-05-18T01:22:44.338Z,95.23
2019-05-18T01:25:10.505Z,95.28
2019-05-18T01:27:36.510Z,95.21
2019-05-18T01:30:08.118Z,94.96
2019-05-18T01:32:34.083Z,95.02
2019-05-18T01:35:00.110Z,95.95
2019-05-18T01:37:26.391Z,95.62
2019-05-18T01:39:52.568Z,95.25
2019-05-18T01:42:18.539Z,95.90
2019-05-18T01:44:44.580Z,96.02
2019-05-18T01:47:10.558Z,95.87
2019-05-18T01:49:36.633Z,95.88
2019-05-18T01:52:02.610Z,95.65
2019-05-18T01:54:28.761Z,96.03
2019-05-18T01:56:54.907Z,96.30
2019-05-18T01:59:20.901Z,96.70
2019-05-18T02:01:46.893Z,95.97
2019-05-18T02:04:12.948Z,96.02
2019-05-18T02:06:38.938Z,96.25
2019-05-18T02:09:06.650Z,96.35
2019-05-18T02:11:32.636Z,96.22
2019-05-18T02:13:58.738Z,96.00
2019-05-18T02:16:24.755Z,96.21
2019-05-18T02:18:50.777Z,96.89
2019-05-18T02:21:16.822Z,96.73
2019-05-18T02:23:42.957Z,97.06
2019-05-18T02:26:09.063Z,96.80
2019-05-18T02:28:35.045Z,96.60
2019-05-18T02:31:01.084Z,96.66
2019-05-18T02:33:27.157Z,96.77
2019-05-18T02:35:53.172Z,97.21
2019-05-18T02:38:19.273Z,96.95
2019-05-18T02:40:46.197Z,96.50
2019-05-18T02:43:12.886Z,95.73
2019-05-18T02:45:38.953Z,95.76
2019-05-18T02:48:05.191Z,95.89
2019-05-18T02:50:31.269Z,96.09
2019-05-18T02:52:57.317Z,96.08
2019-05-18T02:55:23.356Z,96.63
2019-05-18T02:57:49.411Z,96.80
2019-05-18T03:00:16.108Z,96.83
2019-05-18T03:02:42.186Z,96.55
2019-05-18T03:05:08.769Z,96.71
2019-05-18T03:07:34.898Z,96.76
2019-05-18T03:10:01.189Z,96.57
2019-05-18T03:12:27.237Z,96.31
2019-05-18T03:14:53.257Z,95.83
2019-05-18T03:17:19.505Z,95.62
2019-05-18T03:19:45.531Z,95.58
2019-05-18T03:22:11.497Z,95.41
2019-05-18T03:24:37.520Z,95.51
2019-05-18T03:27:03.513Z,95.51
2019-05-18T03:29:29.526Z,95.96
2019-05-18T03:31:55.605Z,96.33
2019-05-18T03:34:21.675Z,96.12
2019-05-18T03:36:47.781Z,96.88
2019-05-18T03:39:13.805Z,97.18
2019-05-18T03:41:39.801Z,96.96
2019-05-18T03:44:05.854Z,96.51
2019-05-18T03:46:31.839Z,96.29
2019-05-18T03:48:57.818Z,96.20
2019-05-18T03:51:23.823Z,95.77
2019-05-18T03:53:49.838Z,95.76
2019-05-18T03:56:15.809Z,96.00
2019-05-18T03:58:41.829Z,95.65
2019-05-18T04:01:07.806Z,95.76
2019-05-18T04:03:33.828Z,95.42
2019-05-18T04:05:59.831Z,95.49
2019-05-18T04:08:25.798Z,95.12
2019-05-18T04:10:51.838Z,95.44
2019-05-18T04:13:18.172Z,95.11
2019-05-18T04:15:44.189Z,95.38
2019-05-18T04:18:10.246Z,94.92
2019-05-18T04:20:36.654Z,94.49
2019-05-18T04:23:02.972Z,93.99
2019-05-18T04:25:29.009Z,94.08
2019-05-18T04:27:55.001Z,93.59
2019-05-18T04:30:21.027Z,93.48
2019-05-18T04:32:47.341Z,93.60
2019-05-18T04:35:13.471Z,92.96
2019-05-18T04:37:39.578Z,93.26
2019-05-18T04:40:06.216Z,93.16
2019-05-18T04:42:32.252Z,92.67
2019-05-18T04:44:58.245Z,92.33
2019-05-18T04:47:24.243Z,92.87
2019-05-18T04:50:04.451Z,92.53
2019-05-18T04:52:18.161Z,92.22
2019-05-18T04:54:44.172Z,91.96
2019-05-18T04:57:10.221Z,91.40
2019-05-18T04:59:36.197Z,91.97
2019-05-18T05:02:02.253Z,92.28
2019-05-18T05:04:28.369Z,92.07
2019-05-18T05:06:54.437Z,91.93
2019-05-18T05:09:20.456Z,91.84
2019-05-18T05:11:46.436Z,91.53
2019-05-18T05:14:12.500Z,91.08
2019-05-18T05:16:38.602Z,90.96
2019-05-18T05:19:04.780Z,90.83
2019-05-18T05:21:31.058Z,90.66
2019-05-18T05:23:57.008Z,91.18
2019-05-18T05:26:23.055Z,91.70
2019-05-18T05:28:49.048Z,91.34
2019-05-18T05:31:15.067Z,91.10
2019-05-18T05:33:41.095Z,91.40
2019-05-18T05:36:07.165Z,91.60
2019-05-18T05:38:33.267Z,91.06
2019-05-18T05:40:59.317Z,90.80
2019-05-18T05:43:25.453Z,91.26
2019-05-18T05:45:51.601Z,91.10
2019-05-18T05:48:17.575Z,91.31
2019-05-18T05:50:43.572Z,91.35
2019-05-18T05:53:09.592Z,91.50
2019-05-18T05:55:35.618Z,91.12
2019-05-18T05:58:01.641Z,90.86
2019-05-18T06:00:27.700Z,90.39
2019-05-18T06:02:53.790Z,90.58
2019-05-18T06:05:19.822Z,90.82
2019-05-18T06:07:45.882Z,90.23
2019-05-18T06:10:12.586Z,90.63
2019-05-18T06:12:38.604Z,90.16
2019-05-18T06:15:05.532Z,90.31
2019-05-18T06:17:31.556Z,89.81
2019-05-18T06:19:57.564Z,89.71
2019-05-18T06:22:23.622Z,89.08
2019-05-18T06:24:49.705Z,89.05
2019-05-18T06:27:15.680Z,88.50
2019-05-18T06:29:41.736Z,88.99
2019-05-18T06:32:07.739Z,88.56
2019-05-18T06:34:33.783Z,87.69
2019-05-18T06:36:59.794Z,87.49
2019-05-18T06:39:25.938Z,87.05
2019-05-18T06:41:52.270Z,86.40
2019-05-18T06:44:18.367Z,86.27
2019-05-18T06:46:44.504Z,85.34
2019-05-18T06:49:10.546Z,83.47
2019-05-18T06:51:36.572Z,82.55
2019-05-18T06:54:02.685Z,81.34
2019-05-18T06:56:30.930Z,79.45
2019-05-18T06:58:58.662Z,77.63
2019-05-18T07:01:24.658Z,79.17
2019-05-18T07:03:50.638Z,79.00
2019-05-18T07:06:16.707Z,78.67
2019-05-18T07:08:42.730Z,78.43
2019-05-18T07:11:08.734Z,77.10
2019-05-18T07:13:34.838Z,75.38
2019-05-18T07:16:00.824Z,74.30
2019-05-18T07:18:26.935Z,72.11
2019-05-18T07:20:52.971Z,74.29
2019-05-18T07:23:18.964Z,74.00
2019-05-18T07:25:45.024Z,72.18
2019-05-18T07:28:11.162Z,70.84
2019-05-18T07:30:37.230Z,69.53
2019-05-18T07:33:03.251Z,69.28
2019-05-18T07:35:29.279Z,69.03
2019-05-18T07:37:55.341Z,69.51
2019-05-18T07:40:21.373Z,68.44
2019-05-18T07:42:47.387Z,67.69
2019-05-18T07:45:13.684Z,67.63
2019-05-18T07:47:39.715Z,65.91
2019-05-18T07:50:06.355Z,65.05
2019-05-18T07:52:32.346Z,64.65
2019-05-18T07:54:58.341Z,65.22
2019-05-18T07:57:24.313Z,65.41
2019-05-18T07:59:50.315Z,64.37
2019-05-18T08:02:16.400Z,63.95
2019-05-18T08:04:42.469Z,63.90
2019-05-18T08:07:08.682Z,62.45
2019-05-18T08:09:34.925Z,61.73
2019-05-18T08:12:01.050Z,63.56
2019-05-18T08:14:27.280Z,62.94
2019-05-18T08:16:53.451Z,63.65
2019-05-18T08:19:19.620Z,63.36
2019-05-18T08:21:53.285Z,62.81
2019-05-18T08:24:13.863Z,62.36
2019-05-18T08:26:40.108Z,62.09
2019-05-18T08:29:06.095Z,61.71
2019-05-18T08:31:32.110Z,60.64
2019-05-18T08:33:58.275Z,59.70
2019-05-18T08:36:24.265Z,59.46
2019-05-18T08:38:50.272Z,57.27
2019-05-18T08:41:16.276Z,59.52
2019-05-18T08:43:42.297Z,60.80
2019-05-18T08:46:08.338Z,59.01
2019-05-18T08:48:34.320Z,59.87
2019-05-18T08:51:00.331Z,58.50
2019-05-18T08:53:26.609Z,57.21
2019-05-18T08:55:52.573Z,56.66
2019-05-18T08:58:18.621Z,55.77
2019-05-18T09:00:44.711Z,57.43
2019-05-18T09:03:10.744Z,56.76
2019-05-18T09:05:36.755Z,54.90
2019-05-18T09:08:02.734Z,53.62
2019-05-18T09:10:28.778Z,54.00
2019-05-18T09:12:54.836Z,52.81
2019-05-18T09:15:20.896Z,51.92
2019-05-18T09:17:47.008Z,52.38
2019-05-18T09:20:13.532Z,52.43
2019-05-18T09:22:39.608Z,54.18
2019-05-18T09:25:06.035Z,52.87
2019-05-18T09:27:32.061Z,52.49
2019-05-18T09:29:58.103Z,53.67
2019-05-18T09:32:24.110Z,53.47
2019-05-18T09:34:50.317Z,51.63
2019-05-18T09:37:16.572Z,48.49
2019-05-18T09:39:42.625Z,48.13
2019-05-18T09:42:08.727Z,47.65
2019-05-18T09:44:34.757Z,49.47
2019-05-18T09:47:00.764Z,48.29
2019-05-18T09:49:26.788Z,47.91
2019-05-18T09:51:52.820Z,46.56
2019-05-18T09:54:19.048Z,46.95
2019-05-18T09:56:45.036Z,45.94
2019-05-18T09:59:11.088Z,44.74
2019-05-18T10:01:37.168Z,44.08
2019-05-18T10:04:03.240Z,45.43
2019-05-18T10:06:31.459Z,45.20
2019-05-18T10:08:57.166Z,43.83
2019-05-18T10:11:23.213Z,44.64
2019-05-18T10:13:49.343Z,42.44
2019-05-18T10:16:15.312Z,42.89
2019-05-18T10:18:41.343Z,42.56
2019-05-18T10:21:07.448Z,42.70
2019-05-18T10:23:33.487Z,43.46
2019-05-18T10:25:59.451Z,44.24
2019-05-18T10:28:25.640Z,44.05
2019-05-18T10:30:51.668Z,44.37
2019-05-18T10:33:17.677Z,42.41
2019-05-18T10:35:43.768Z,43.02
2019-05-18T10:38:09.788Z,42.56
2019-05-18T10:40:35.758Z,43.73
2019-05-18T10:43:01.757Z,43.72
2019-05-18T10:45:27.802Z,43.66
2019-05-18T10:47:53.792Z,43.64
2019-05-18T10:50:19.846Z,44.44
2019-05-18T10:52:45.873Z,43.80
2019-05-18T10:55:12.032Z,43.44
2019-05-18T10:57:38.110Z,42.74
2019-05-18T11:00:09.612Z,42.82
2019-05-18T11:02:35.712Z,44.52
2019-05-18T11:05:02.649Z,43.48
2019-05-18T11:07:29.126Z,41.56
2019-05-18T11:09:55.196Z,42.11
2019-05-18T11:12:21.185Z,42.78
2019-05-18T11:14:47.182Z,43.29
2019-05-18T11:17:13.480Z,42.75
2019-05-18T11:19:39.457Z,42.33
2019-05-18T11:22:05.485Z,41.05
2019-05-18T11:24:31.500Z,42.07
2019-05-18T11:26:57.529Z,41.37
2019-05-18T11:29:24.379Z,42.35
2019-05-18T11:31:50.811Z,41.51
2019-05-18T11:34:16.940Z,40.90
2019-05-18T11:36:43.031Z,39.67
2019-05-18T11:39:09.073Z,41.02
2019-05-18T11:41:35.208Z,40.82
2019-05-18T11:44:02.075Z,40.71
2019-05-18T11:46:28.061Z,41.88
2019-05-18T11:48:54.067Z,42.27
2019-05-18T11:51:20.134Z,41.75
2019-05-18T11:53:57.488Z,43.14
2019-05-18T11:56:13.997Z,43.87
2019-05-18T11:58:40.000Z,43.85
2019-05-18T12:01:06.004Z,43.58
2019-05-18T12:03:31.985Z,43.27
2019-05-18T12:05:58.008Z,43.36
2019-05-18T12:08:24.029Z,42.43
2019-05-18T12:10:50.073Z,42.52
2019-05-18T12:13:16.072Z,42.52
2019-05-18T12:15:42.211Z,40.76
2019-05-18T12:18:08.506Z,41.21
2019-05-18T12:20:34.590Z,42.23
2019-05-18T12:23:00.557Z,43.53
2019-05-18T12:25:26.640Z,44.28
2019-05-18T12:27:52.777Z,43.88
2019-05-18T12:30:19.256Z,44.43
2019-05-18T12:32:45.290Z,44.38
2019-05-18T12:35:11.808Z,45.44
2019-05-18T12:37:37.973Z,46.28
2019-05-18T12:40:06.145Z,46.27
2019-05-18T12:42:32.266Z,45.33
2019-05-18T12:44:58.281Z,44.51
2019-05-18T12:47:24.289Z,45.72
2019-05-18T12:49:50.280Z,46.36
2019-05-18T12:52:16.356Z,47.01
2019-05-18T12:54:46.622Z,47.45
2019-05-18T12:57:10.255Z,48.24
2019-05-18T12:59:36.282Z,48.95
2019-05-18T13:02:02.565Z,48.40
2019-05-18T13:04:28.657Z,49.37
2019-05-18T13:06:54.688Z,49.48
2019-05-18T13:09:23.631Z,49.10
2019-05-18T13:11:48.669Z,48.45
2019-05-18T13:14:14.652Z,48.45
2019-05-18T13:16:40.706Z,48.72
2019-05-18T13:19:06.711Z,48.62
2019-05-18T13:21:33.200Z,48.84
2019-05-18T13:23:59.186Z,48.78
2019-05-18T13:26:25.222Z,48.58
2019-05-18T13:28:51.237Z,47.68
2019-05-18T13:31:17.236Z,47.26
2019-05-18T13:33:43.264Z,47.01
2019-05-18T13:36:09.290Z,46.55
2019-05-18T13:38:35.328Z,47.01
2019-05-18T13:41:01.371Z,46.28
2019-05-18T13:43:27.474Z,46.88
2019-05-18T13:45:53.443Z,45.93
2019-05-18T13:48:19.430Z,46.01
2019-05-18T13:50:45.441Z,45.50
2019-05-18T13:53:11.424Z,44.90
2019-05-18T13:55:37.491Z,45.78
2019-05-18T13:58:03.495Z,45.82
2019-05-18T14:00:29.523Z,45.62
2019-05-18T14:02:55.520Z,46.04
2019-05-18T14:05:21.566Z,45.88
2019-05-18T14:07:47.656Z,46.24
2019-05-18T14:10:13.947Z,45.02
2019-05-18T14:12:40.045Z,45.75
2019-05-18T14:15:08.127Z,45.23
2019-05-18T14:17:34.144Z,45.65
2019-05-18T14:20:00.481Z,46.26
2019-05-18T14:22:26.464Z,46.09
2019-05-18T14:24:52.463Z,46.81
2019-05-18T14:27:18.463Z,46.45
2019-05-18T14:29:44.513Z,46.94
2019-05-18T14:32:11.013Z,46.48
2019-05-18T14:34:37.179Z,46.32
2019-05-18T14:37:03.388Z,46.98
2019-05-18T14:39:29.645Z,47.22
2019-05-18T14:41:55.670Z,47.46
2019-05-18T14:44:21.693Z,48.16
2019-05-18T14:46:47.680Z,48.10
2019-05-18T14:49:13.768Z,48.62
2019-05-18T14:51:39.943Z,49.42
2019-05-18T14:54:05.997Z,49.74
2019-05-18T14:56:32.004Z,49.99
2019-05-18T14:58:57.993Z,50.35
2019-05-18T15:01:24.010Z,49.74
2019-05-18T15:03:49.984Z,49.48
2019-05-18T15:06:16.098Z,48.96
2019-05-18T15:08:42.211Z,48.41
2019-05-18T15:11:08.210Z,48.36
2019-05-18T15:13:34.328Z,48.07
2019-05-18T15:16:00.402Z,48.06
2019-05-18T15:18:26.473Z,48.12
2019-05-18T15:20:52.557Z,48.29
2019-05-18T15:23:18.622Z,48.25
2019-05-18T15:25:50.931Z,47.85
2019-05-18T15:28:12.542Z,47.65
2019-05-18T15:30:38.924Z,48.40
2019-05-18T15:33:05.005Z,49.12
2019-05-18T15:35:31.008Z,48.92
2019-05-18T15:37:57.054Z,48.81
2019-05-18T15:40:23.146Z,48.96
2019-05-18T15:42:49.185Z,49.44
2019-05-18T15:45:17.359Z,48.58
2019-05-18T15:47:43.388Z,48.85
2019-05-18T15:50:09.616Z,48.50
2019-05-18T15:52:35.662Z,48.54
2019-05-18T15:55:02.036Z,48.97
2019-05-18T15:57:28.023Z,49.39
2019-05-18T15:59:54.127Z,49.95
2019-05-18T16:02:20.140Z,49.79
2019-05-18T16:04:46.150Z,49.29
2019-05-18T16:07:12.207Z,49.71
2019-05-18T16:09:38.189Z,49.41
2019-05-18T16:12:04.387Z,49.76
2019-05-18T16:14:30.377Z,50.46
2019-05-18T16:16:56.382Z,50.97
2019-05-18T16:19:22.593Z,50.82
2019-05-18T16:21:48.565Z,50.80
2019-05-18T16:24:14.596Z,50.13
2019-05-18T16:26:40.579Z,49.76
2019-05-18T16:29:06.624Z,51.09
2019-05-18T16:31:32.630Z,51.49
2019-05-18T16:33:58.616Z,51.63
2019-05-18T16:36:24.663Z,52.48
2019-05-18T16:38:50.770Z,52.64
2019-05-18T16:41:16.939Z,52.75
2019-05-18T16:43:43.068Z,52.97
2019-05-18T16:46:09.080Z,53.44
2019-05-18T16:48:35.085Z,53.99
2019-05-18T16:51:01.238Z,55.02
2019-05-18T16:53:27.403Z,55.30
2019-05-18T16:55:53.519Z,55.79
2019-05-18T16:58:19.582Z,56.42
2019-05-18T17:00:45.591Z,56.66
2019-05-18T17:03:11.613Z,57.05
2019-05-18T17:05:37.688Z,57.98
2019-05-18T17:08:03.809Z,58.50
2019-05-18T17:10:30.109Z,58.59
2019-05-18T17:12:56.226Z,59.58
2019-05-18T17:15:22.947Z,60.64
2019-05-18T17:17:48.929Z,60.88
2019-05-18T17:20:15.641Z,61.94
2019-05-18T17:22:41.710Z,63.04
2019-05-18T17:25:08.329Z,63.76
2019-05-18T17:27:34.315Z,64.70
2019-05-18T17:30:00.524Z,65.17
2019-05-18T17:32:26.669Z,65.33
2019-05-18T17:34:52.644Z,65.59
2019-05-18T17:37:18.672Z,65.67
2019-05-18T17:39:44.692Z,66.12
2019-05-18T17:42:10.700Z,66.64
2019-05-18T17:44:37.163Z,67.35
2019-05-18T17:47:03.355Z,67.17
2019-05-18T17:49:29.526Z,67.38
2019-05-18T17:51:55.564Z,67.15
2019-05-18T17:54:21.562Z,67.56
2019-05-18T17:56:47.612Z,67.91
2019-05-18T17:59:13.653Z,67.98
2019-05-18T18:01:39.717Z,67.72
2019-05-18T18:04:05.754Z,68.43
2019-05-18T18:06:31.748Z,68.71
2019-05-18T18:08:57.752Z,69.64
2019-05-18T18:11:23.836Z,69.45
2019-05-18T18:13:49.871Z,70.10
2019-05-18T18:16:15.974Z,70.84
2019-05-18T18:18:42.065Z,71.06
2019-05-18T18:21:08.147Z,71.49
2019-05-18T18:23:34.165Z,71.09
2019-05-18T18:26:00.204Z,71.82
2019-05-18T18:28:26.242Z,71.92
2019-05-18T18:30:52.251Z,71.92
2019-05-18T18:33:18.302Z,72.08
2019-05-18T18:35:44.322Z,71.98
2019-05-18T18:38:10.312Z,72.70
2019-05-18T18:40:36.360Z,73.17
2019-05-18T18:43:02.419Z,73.19
2019-05-18T18:45:28.409Z,73.23
2019-05-18T18:47:54.436Z,73.11
2019-05-18T18:50:20.488Z,73.33
2019-05-18T18:52:46.533Z,73.78
2019-05-18T18:55:13.145Z,73.82
2019-05-18T18:57:41.877Z,73.58
2019-05-18T19:00:07.902Z,73.34
2019-05-18T19:02:33.990Z,73.79
2019-05-18T19:05:00.110Z,74.22
2019-05-18T19:07:26.208Z,74.59
2019-05-18T19:09:52.209Z,74.57
2019-05-18T19:12:18.172Z,74.94
2019-05-18T19:14:44.206Z,75.38
2019-05-18T19:17:10.185Z,75.23
2019-05-18T19:19:36.167Z,75.32
2019-05-18T19:22:02.197Z,75.18
2019-05-18T19:24:28.209Z,75.33
2019-05-18T19:26:54.362Z,75.42
2019-05-18T19:29:20.441Z,75.42
2019-05-18T19:31:46.417Z,75.22
2019-05-18T19:34:12.424Z,75.23
2019-05-18T19:36:38.424Z,75.75
2019-05-18T19:39:04.769Z,75.26
2019-05-18T19:41:30.752Z,75.46
2019-05-18T19:43:56.890Z,75.55
2019-05-18T19:46:22.928Z,76.36
2019-05-18T19:48:48.949Z,76.20
2019-05-18T19:51:16.166Z,75.98
2019-05-18T19:53:42.349Z,76.63
2019-05-18T19:56:08.720Z,76.78
2019-05-18T19:58:34.701Z,76.78
2019-05-18T20:01:00.684Z,76.13
2019-05-18T20:03:26.691Z,76.54
2019-05-18T20:05:52.730Z,75.99
2019-05-18T20:08:18.754Z,76.19
2019-05-18T20:10:45.076Z,76.35
2019-05-18T20:13:11.153Z,76.12
2019-05-18T20:15:37.179Z,76.49
2019-05-18T20:18:03.185Z,76.64
2019-05-18T20:20:29.197Z,76.87
2019-05-18T20:22:55.172Z,77.12
2019-05-18T20:25:21.174Z,76.89
2019-05-18T20:27:47.177Z,76.43
2019-05-18T20:30:13.849Z,76.82
2019-05-18T20:32:39.900Z,76.73
2019-05-18T20:35:06.119Z,76.84
2019-05-18T20:37:32.118Z,77.00
2019-05-18T20:39:58.101Z,77.48
2019-05-18T20:42:24.142Z,77.34
2019-05-18T20:44:50.263Z,77.32
2019-05-18T20:47:16.252Z,77.33
2019-05-18T20:49:42.297Z,77.55
2019-05-18T20:52:08.364Z,77.75
2019-05-18T20:54:34.466Z,77.86
2019-05-18T20:57:00.633Z,78.16
2019-05-18T20:59:26.617Z,78.81
2019-05-18T21:01:52.644Z,78.96
2019-05-18T21:04:18.622Z,78.88
2019-05-18T21:06:45.670Z,79.32
2019-05-18T21:09:11.926Z,79.06
2019-05-18T21:11:38.060Z,79.72
2019-05-18T21:14:04.045Z,79.81
2019-05-18T21:16:33.411Z,80.32
2019-05-18T21:18:59.436Z,80.25
2019-05-18T21:21:26.639Z,80.64
2019-05-18T21:23:52.938Z,80.32
2019-05-18T21:26:18.904Z,80.12
2019-05-18T21:28:55.568Z,79.76
2019-05-18T21:31:12.795Z,80.03
2019-05-18T21:33:38.769Z,79.97
2019-05-18T21:36:04.934Z,79.83
2019-05-18T21:38:31.012Z,80.25
2019-05-18T21:40:57.043Z,80.32
2019-05-18T21:43:23.094Z,80.53
2019-05-18T21:45:49.104Z,80.63
2019-05-18T21:48:15.201Z,81.12
2019-05-18T21:50:41.250Z,81.38
2019-05-18T21:53:07.257Z,81.22
2019-05-18T21:55:33.830Z,81.04
2019-05-18T21:57:59.864Z,81.24
2019-05-18T22:00:26.136Z,81.60
2019-05-18T22:02:52.246Z,81.49
2019-05-18T22:05:18.211Z,81.71
2019-05-18T22:07:44.994Z,81.28
2019-05-18T22:10:24.865Z,81.25
2019-05-18T22:12:39.261Z,81.63
2019-05-18T22:15:06.215Z,82.36
2019-05-18T22:17:34.101Z,82.66
2019-05-18T22:20:00.082Z,83.60
2019-05-18T22:22:26.099Z,82.41
2019-05-18T22:24:52.114Z,82.21
2019-05-18T22:27:18.211Z,82.73
2019-05-18T22:29:44.225Z,83.53
2019-05-18T22:32:10.193Z,83.50
2019-05-18T22:34:36.595Z,83.06
2019-05-18T22:37:02.564Z,83.15
2019-05-18T22:39:28.556Z,83.29
2019-05-18T22:41:54.634Z,82.60
2019-05-18T22:44:20.690Z,82.99
2019-05-18T22:46:46.653Z,83.66
2019-05-18T22:49:12.700Z,83.76
2019-05-18T22:51:38.675Z,83.36
2019-05-18T22:54:05.070Z,83.18
2019-05-18T22:56:31.147Z,83.16
2019-05-18T22:58:57.195Z,83.64
2019-05-18T23:01:23.213Z,84.50
2019-05-18T23:03:51.667Z,83.99
2019-05-18T23:06:17.520Z,83.45
2019-05-18T23:08:43.505Z,84.06
2019-05-18T23:11:09.540Z,84.19
2019-05-18T23:13:35.591Z,82.63
2019-05-18T23:16:01.649Z,81.82
2019-05-18T23:18:27.624Z,80.74
2019-05-18T23:20:53.642Z,79.96
2019-05-18T23:23:19.662Z,81.35
2019-05-18T23:25:45.644Z,82.47
2019-05-18T23:28:11.784Z,83.71
2019-05-18T23:30:37.837Z,83.74
2019-05-18T23:33:03.859Z,83.78
2019-05-18T23:35:29.840Z,83.66
2019-05-18T23:37:56.068Z,83.24
2019-05-18T23:40:22.080Z,83.66
2019-05-18T23:42:48.124Z,83.61
2019-05-18T23:45:14.329Z,82.91
2019-05-18T23:47:40.377Z,83.51
2019-05-18T23:50:06.652Z,83.38
2019-05-18T23:52:32.693Z,83.59
2019-05-18T23:54:58.680Z,83.49
2019-05-18T23:57:24.761Z,83.94
2019-05-18T23:59:50.844Z,83.97
